Time;durP1;ratioP1;P1;durP2;ratioP2;P2;SDS_P1;SDS_P2;PMS_P1;PMS_P2;Temp;Humidity;BMP_temperature;BMP_pressure;BME280_temperature;BME280_humidity;BME280_pressure;Samples;Min_cycle;Max_cycle;Signal;HPM_P1;HPM_P2
2022/05/25 00:02:01;;;;;;;1.57;1.10;;;;;;;16.07;100.00;98945.25;5027979;28;20190;-76
2022/05/25 00:04:28;;;;;;;1.07;0.97;;;;;;;16.00;100.00;98948.25;5029543;28;20241;-76
2022/05/25 00:06:55;;;;;;;1.33;1.23;;;;;;;16.04;100.00;98945.81;5029531;28;20206;-75
2022/05/25 00:09:22;;;;;;;1.77;0.90;;;;;;;15.99;100.00;98951.22;5029371;28;20190;-76
2022/05/25 00:11:48;;;;;;;1.73;1.40;;;;;;;16.04;100.00;98954.72;5029474;28;20857;-75
2022/05/25 00:14:15;;;;;;;3.10;0.93;;;;;;;15.99;100.00;98941.22;5029166;28;20249;-75
2022/05/25 00:16:42;;;;;;;1.30;1.20;;;;;;;16.02;100.00;98935.25;5029268;28;20187;-76
2022/05/25 00:21:54;;;;;;;2.40;1.13;;;;;;;15.99;100.00;98943.09;5029673;28;20175;-76
2022/05/25 00:24:21;;;;;;;2.03;1.37;;;;;;;16.09;100.00;98946.63;5031640;28;20206;-75
2022/05/25 00:26:48;;;;;;;1.50;1.40;;;;;;;16.01;100.00;98952.53;5033144;28;20182;-75
2022/05/25 00:29:14;;;;;;;1.70;1.30;;;;;;;15.97;100.00;98948.75;5033047;28;20268;-76
2022/05/25 00:31:41;;;;;;;2.33;1.10;;;;;;;16.03;100.00;98953.09;5032806;28;20213;-77
2022/05/25 00:34:09;;;;;;;2.03;1.10;;;;;;;16.00;100.00;98944.72;5032762;28;20266;-76
2022/05/25 00:36:36;;;;;;;2.30;1.20;;;;;;;15.95;100.00;98947.44;5031827;28;20183;-76
2022/05/25 00:39:04;;;;;;;1.63;1.20;;;;;;;15.90;100.00;98940.13;5032836;28;20194;-77
2022/05/25 00:41:31;;;;;;;1.30;0.90;;;;;;;15.95;100.00;98942.03;5033053;28;20190;-76
2022/05/25 00:43:58;;;;;;;1.73;1.30;;;;;;;15.95;100.00;98939.31;5031670;28;20195;-77
2022/05/25 00:46:26;;;;;;;1.20;1.10;;;;;;;15.88;100.00;98942.28;5031368;28;20542;-75
2022/05/25 00:48:56;;;;;;;1.50;1.20;;;;;;;15.90;100.00;98956.34;5031448;28;20617;-75
2022/05/25 00:51:29;;;;;;;2.33;1.00;;;;;;;15.93;100.00;98950.38;5032335;28;20186;-75
2022/05/25 00:54:00;;;;;;;0.80;0.80;;;;;;;15.90;100.00;98944.72;5032784;28;20183;-76
2022/05/25 00:56:29;;;;;;;1.90;1.10;;;;;;;15.91;100.00;98943.66;5032469;28;20252;-76
2022/05/25 00:59:01;;;;;;;1.50;1.40;;;;;;;16.00;100.00;98950.13;5032437;28;20308;-76
2022/05/25 01:01:29;;;;;;;2.17;1.43;;;;;;;16.01;100.00;98959.84;5032335;28;20648;-76
2022/05/25 01:03:56;;;;;;;1.27;1.17;;;;;;;15.93;100.00;98961.19;5032617;28;20202;-76
2022/05/25 01:06:38;;;;;;;1.20;1.10;;;;;;;15.86;100.00;98955.28;5031922;28;20265;-75
2022/05/25 01:09:23;;;;;;;1.07;0.97;;;;;;;15.87;100.00;98954.16;5032048;28;20183;-76
2022/05/25 01:11:55;;;;;;;1.40;1.20;;;;;;;15.88;100.00;98961.19;5032417;28;20213;-74
2022/05/25 01:14:38;;;;;;;1.10;0.93;;;;;;;15.84;100.00;98960.94;5030912;28;20202;-75
2022/05/25 01:17:21;;;;;;;1.53;1.30;;;;;;;15.91;100.00;98965.25;5030723;28;20210;-75
2022/05/25 01:20:00;;;;;;;0.80;0.80;;;;;;;15.91;100.00;98959.84;5031036;28;20202;-76
2022/05/25 01:23:06;;;;;;;1.97;1.00;;;;;;;15.87;100.00;98967.66;5032223;28;20213;-77
2022/05/25 01:26:12;;;;;;;1.63;0.90;;;;;;;15.92;100.00;98964.16;5031034;28;20285;-77
2022/05/25 01:28:55;;;;;;;1.43;0.87;;;;;;;15.90;100.00;98972.56;5030681;28;20206;-77
2022/05/25 01:31:25;;;;;;;1.63;1.10;;;;;;;15.89;100.00;98965.53;5031920;28;20204;-75
2022/05/25 01:33:55;;;;;;;1.40;1.00;;;;;;;15.83;100.00;98963.88;5029292;28;20574;-75
2022/05/25 01:36:39;;;;;;;1.80;1.10;;;;;;;15.80;100.00;98964.44;5030248;28;20225;-76
2022/05/25 01:39:11;;;;;;;0.93;0.90;;;;;;;15.90;100.00;98977.13;5030479;28;20202;-75
2022/05/25 01:41:46;;;;;;;1.20;1.10;;;;;;;15.89;100.00;98973.63;5031661;28;20601;-75
2022/05/25 01:44:21;;;;;;;1.23;1.13;;;;;;;15.93;100.00;98966.59;5030254;28;20202;-74
2022/05/25 01:46:51;;;;;;;1.20;1.00;;;;;;;15.86;100.00;98956.06;5030467;28;20718;-75
2022/05/25 01:49:21;;;;;;;1.23;1.10;;;;;;;15.83;100.00;98956.59;5030080;28;20182;-77
2022/05/25 01:51:54;;;;;;;0.97;0.97;;;;;;;15.84;100.00;98957.41;5030134;28;20215;-75
2022/05/25 01:54:26;;;;;;;1.40;1.30;;;;;;;15.78;100.00;98953.91;5030378;28;20229;-74
2022/05/25 01:56:54;;;;;;;0.80;0.80;;;;;;;15.78;100.00;98944.97;5030359;28;20692;-77
2022/05/25 01:59:22;;;;;;;1.77;1.00;;;;;;;15.77;100.00;98946.09;5030228;28;20260;-75
2022/05/25 02:04:19;;;;;;;0.80;0.80;;;;;;;15.78;100.00;98943.09;5031814;28;20233;-74
2022/05/25 02:04:42;;;;;;;0.83;0.83;;;;;;;15.76;100.00;98933.66;5030731;28;20685;-75
2022/05/25 02:07:32;;;;;;;0.60;0.60;;;;;;;15.81;100.00;98931.78;5029836;28;20187;-75
2022/05/25 02:10:39;;;;;;;0.80;0.60;;;;;;;15.82;100.00;98914.47;5031402;28;20793;-75
2022/05/25 02:13:51;;;;;;;1.20;0.60;;;;;;;15.85;100.00;98922.03;5026440;28;20206;-75
2022/05/25 02:16:51;;;;;;;0.80;0.53;;;;;;;15.78;100.00;98917.97;5029809;28;20293;-75
2022/05/25 02:19:25;;;;;;;0.90;0.60;;;;;;;15.76;100.00;98909.34;5030857;28;20245;-75
2022/05/25 02:21:56;;;;;;;0.40;0.40;;;;;;;15.79;100.00;98922.31;5029923;28;20269;-75
2022/05/25 02:24:40;;;;;;;1.00;0.90;;;;;;;15.80;100.00;98932.84;5029643;28;20218;-75
2022/05/25 02:27:12;;;;;;;0.40;0.40;;;;;;;15.80;100.00;98923.94;5029479;28;20214;-75
2022/05/25 02:29:44;;;;;;;0.83;0.60;;;;;;;15.73;100.00;98918.78;5031043;28;20171;-75
2022/05/25 02:32:18;;;;;;;1.57;0.90;;;;;;;15.69;100.00;98919.59;5030884;28;20189;-77
2022/05/25 02:34:48;;;;;;;0.53;0.53;;;;;;;15.80;100.00;98923.94;5029905;28;20183;-75
2022/05/25 02:37:16;;;;;;;1.17;0.50;;;;;;;15.73;100.00;98921.47;5029434;28;20229;-75
2022/05/25 02:39:43;;;;;;;0.73;0.70;;;;;;;15.70;100.00;98923.91;5029719;28;20210;-76
2022/05/25 02:42:16;;;;;;;1.30;0.60;;;;;;;15.68;100.00;98923.38;5029391;28;20220;-75
2022/05/25 02:44:43;;;;;;;0.60;0.60;;;;;;;15.66;100.00;98941.75;5030187;28;20226;-76
2022/05/25 02:47:11;;;;;;;0.60;0.60;;;;;;;15.64;100.00;98938.50;5030331;28;20342;-74
2022/05/25 02:49:38;;;;;;;1.13;0.60;;;;;;;15.64;100.00;98938.50;5030384;28;20795;-75
2022/05/25 02:52:08;;;;;;;0.80;0.50;;;;;;;15.63;100.00;98947.69;5028864;28;20194;-75
2022/05/25 02:54:35;;;;;;;1.73;0.70;;;;;;;15.61;100.00;98952.53;5028986;28;20210;-74
2022/05/25 02:57:02;;;;;;;2.00;0.60;;;;;;;15.62;100.00;98954.97;5029957;28;20191;-75
2022/05/25 02:59:28;;;;;;;0.87;0.70;;;;;;;15.62;100.00;98956.88;5030281;28;20229;-75
2022/05/25 03:01:55;;;;;;;0.97;0.50;;;;;;;15.59;100.00;98957.38;5030044;28;20617;-75
2022/05/25 03:04:22;;;;;;;0.67;0.67;;;;;;;15.61;100.00;98963.34;5030296;28;20629;-75
2022/05/25 03:06:49;;;;;;;0.50;0.50;;;;;;;15.61;100.00;98980.34;5029844;28;20202;-75
2022/05/25 03:09:16;;;;;;;1.07;0.80;;;;;;;15.62;100.00;98973.06;5030024;28;20252;-75
2022/05/25 03:11:44;;;;;;;0.73;0.70;;;;;;;15.60;100.00;98976.03;5030105;28;20190;-74
2022/05/25 03:14:11;;;;;;;0.80;0.60;;;;;;;15.60;100.00;98976.03;5029650;28;20737;-75
2022/05/25 03:16:38;;;;;;;0.93;0.50;;;;;;;15.55;100.00;98967.91;5029941;28;20193;-75
2022/05/25 03:19:06;;;;;;;0.60;0.60;;;;;;;15.55;100.00;98967.91;5029710;28;20186;-74
2022/05/25 03:21:33;;;;;;;0.60;0.60;;;;;;;15.57;100.00;98978.47;5030031;28;20191;-75
2022/05/25 03:24:00;;;;;;;0.60;0.60;;;;;;;15.60;100.00;98980.59;5029962;28;20235;-76
2022/05/25 03:26:27;;;;;;;0.60;0.57;;;;;;;15.60;100.00;98991.41;5028352;28;20241;-76
2022/05/25 03:28:54;;;;;;;0.60;0.60;;;;;;;15.58;100.00;98996.28;5029977;28;20297;-75
2022/05/25 03:31:20;;;;;;;0.50;0.50;;;;;;;15.53;100.00;98996.28;5029683;28;20186;-79
2022/05/25 03:33:47;;;;;;;0.50;0.50;;;;;;;15.56;100.00;99007.34;5029526;28;20257;-75
2022/05/25 03:36:14;;;;;;;0.50;0.50;;;;;;;15.55;100.00;99008.41;5029873;28;20221;-75
2022/05/25 03:38:41;;;;;;;0.60;0.60;;;;;;;15.58;100.00;99007.09;5029871;28;20658;-75
2022/05/25 03:41:08;;;;;;;1.23;0.70;;;;;;;15.69;100.00;98998.72;5029786;28;20270;-75
2022/05/25 03:43:37;;;;;;;1.13;0.70;;;;;;;15.68;100.00;98990.88;5029705;28;20206;-75
2022/05/25 03:46:04;;;;;;;1.13;0.60;;;;;;;15.69;100.00;99008.72;5028257;28;20767;-77
2022/05/25 03:48:31;;;;;;;0.80;0.60;;;;;;;15.72;100.00;99006.28;5029769;28;20256;-75
2022/05/25 03:50:58;;;;;;;1.40;0.60;;;;;;;15.72;100.00;99013.59;5029629;28;20236;-78
2022/05/25 03:53:24;;;;;;;1.57;0.60;;;;;;;15.71;100.00;99004.69;5029539;28;20273;-76
2022/05/25 03:55:52;;;;;;;0.77;0.70;;;;;;;15.73;100.00;99001.69;5029781;28;20213;-77
2022/05/25 03:58:19;;;;;;;1.50;0.67;;;;;;;15.80;100.00;98994.97;5032040;28;20697;-76
2022/05/25 04:00:46;;;;;;;1.37;1.00;;;;;;;15.91;100.00;98997.69;5033970;28;20654;-78
2022/05/25 04:03:20;;;;;;;1.23;0.67;;;;;;;15.95;100.00;99002.28;5033427;28;20556;-77
2022/05/25 04:05:46;;;;;;;1.60;0.80;;;;;;;16.00;100.00;98996.88;5033842;28;20256;-76
2022/05/25 04:08:13;;;;;;;0.83;0.70;;;;;;;16.10;100.00;98990.63;5033304;28;20206;-76
2022/05/25 04:10:40;;;;;;;0.80;0.80;;;;;;;16.15;100.00;98977.13;5033956;28;20218;-75
2022/05/25 04:13:07;;;;;;;0.70;0.70;;;;;;;16.16;100.00;98968.75;5032145;28;20229;-77
2022/05/25 04:15:34;;;;;;;1.00;0.90;;;;;;;16.16;100.00;98962.53;5032290;28;20236;-77
2022/05/25 04:18:02;;;;;;;0.80;0.80;;;;;;;16.12;100.00;98962.28;5033214;28;20212;-76
2022/05/25 04:20:30;;;;;;;1.00;0.90;;;;;;;16.11;100.00;98960.66;5033505;28;20218;-76
2022/05/25 04:22:57;;;;;;;1.67;0.73;;;;;;;16.12;100.00;98948.75;5032039;28;20182;-77
2022/05/25 04:25:25;;;;;;;2.03;0.73;;;;;;;16.11;100.00;98941.72;5033142;28;20268;-77
2022/05/25 04:27:54;;;;;;;0.60;0.60;;;;;;;16.02;100.00;98954.16;5033140;28;20268;-76
2022/05/25 04:30:24;;;;;;;1.60;0.50;;;;;;;16.15;100.00;98964.41;5033237;28;20654;-76
2022/05/25 04:32:52;;;;;;;1.93;0.67;;;;;;;15.93;100.00;98972.00;5033176;28;20187;-77
2022/05/25 04:35:19;;;;;;;0.60;0.50;;;;;;;15.95;100.00;98979.84;5033206;28;20218;-76
2022/05/25 04:37:55;;;;;;;0.60;0.60;;;;;;;15.78;100.00;99004.41;5033197;28;20237;-75
2022/05/25 04:40:27;;;;;;;0.80;0.70;;;;;;;15.77;100.00;99008.97;5031927;28;20171;-77
2022/05/25 04:42:55;;;;;;;0.70;0.67;;;;;;;15.83;100.00;99007.91;5031681;28;20573;-77
2022/05/25 04:45:25;;;;;;;1.10;0.80;;;;;;;15.82;100.00;99002.78;5032752;28;20210;-77
2022/05/25 04:47:56;;;;;;;1.13;0.80;;;;;;;15.73;100.00;98988.19;5031868;28;20725;-76
2022/05/25 04:50:25;;;;;;;0.80;0.80;;;;;;;15.72;100.00;98983.88;5031557;28;20205;-76
2022/05/25 04:52:53;;;;;;;0.80;0.80;;;;;;;15.70;100.00;98988.72;5031771;28;20186;-77
2022/05/25 04:58:26;;;;;;;2.20;1.00;;;;;;;15.63;100.00;98978.19;5032132;28;20698;-79
2022/05/25 05:00:55;;;;;;;2.33;0.80;;;;;;;15.63;100.00;98970.06;5032766;28;20183;-77
2022/05/25 05:03:24;;;;;;;2.10;0.83;;;;;;;15.72;100.00;98990.06;5032279;28;20194;-75
2022/05/25 05:05:51;;;;;;;1.03;0.93;;;;;;;15.67;100.00;99011.69;5031325;28;20285;-76
2022/05/25 05:08:18;;;;;;;1.27;0.80;;;;;;;15.69;100.00;99012.22;5030810;28;20217;-75
2022/05/25 05:10:45;;;;;;;1.37;0.93;;;;;;;15.73;100.00;99007.91;5032658;28;20237;-76
2022/05/25 05:13:11;;;;;;;1.70;0.90;;;;;;;15.76;100.00;99015.50;5032045;28;20215;-75
2022/05/25 05:15:45;;;;;;;1.20;0.90;;;;;;;15.76;100.00;99014.69;5032471;28;20190;-76
2022/05/25 05:18:12;;;;;;;0.80;0.80;;;;;;;15.82;100.00;99025.19;5030881;28;20182;-76
2022/05/25 05:20:55;;;;;;;0.60;0.60;;;;;;;15.95;100.00;99015.78;5031892;28;20694;-76
2022/05/25 05:23:22;;;;;;;1.00;0.90;;;;;;;16.00;100.00;99004.97;5031878;28;20252;-76
2022/05/25 05:25:49;;;;;;;0.70;0.70;;;;;;;16.13;100.00;99011.72;5032331;28;20260;-75
2022/05/25 05:28:22;;;;;;;0.97;0.97;;;;;;;16.22;100.00;99018.22;5031698;28;20272;-76
2022/05/25 05:30:52;;;;;;;0.80;0.77;;;;;;;16.29;100.00;99022.25;5032259;28;20221;-77
2022/05/25 05:33:23;;;;;;;1.50;1.40;;;;;;;16.37;100.00;99034.44;5031822;28;20183;-76
2022/05/25 05:36:15;;;;;;;0.77;0.70;;;;;;;16.45;100.00;99038.47;5032282;28;20179;-76
2022/05/25 05:38:49;;;;;;;0.90;0.90;;;;;;;16.68;100.00;99046.84;5028897;28;20607;-76
2022/05/25 05:41:20;;;;;;;2.27;0.60;;;;;;;17.00;100.00;99040.28;5038507;28;20271;-77
2022/05/25 05:43:46;;;;;;;1.37;0.70;;;;;;;17.36;100.00;99054.47;5031600;28;20617;-77
2022/05/25 05:46:13;;;;;;;0.70;0.70;;;;;;;17.85;100.00;99057.25;5030491;28;20611;-76
2022/05/25 05:48:40;;;;;;;1.03;0.50;;;;;;;18.49;100.00;99068.69;5030486;28;20194;-76
2022/05/25 05:51:08;;;;;;;0.83;0.53;;;;;;;19.14;100.00;99069.16;5031460;28;20210;-77
2022/05/25 05:53:35;;;;;;;0.50;0.50;;;;;;;19.95;100.00;99070.88;5030184;28;20194;-76
2022/05/25 05:56:02;;;;;;;0.50;0.50;;;;;;;20.46;100.00;99068.19;5031809;28;20215;-76
2022/05/25 05:58:29;;;;;;;0.70;0.70;;;;;;;20.96;100.00;99076.56;5029433;28;20811;-77
2022/05/25 06:00:56;;;;;;;0.50;0.50;;;;;;;20.83;100.00;99077.34;5031571;28;20246;-76
2022/05/25 06:03:23;;;;;;;0.43;0.43;;;;;;;20.42;100.00;99069.88;5029436;28;20211;-76
2022/05/25 06:05:50;;;;;;;0.50;0.50;;;;;;;20.19;100.00;99076.22;5030121;28;20236;-76
2022/05/25 06:08:19;;;;;;;0.40;0.40;;;;;;;20.13;100.00;99091.81;5029492;28;20193;-77
2022/05/25 06:10:46;;;;;;;0.70;0.50;;;;;;;19.97;100.00;99090.38;5029424;28;20235;-76
2022/05/25 06:13:14;;;;;;;0.97;0.60;;;;;;;19.87;100.00;99087.84;5030845;28;20751;-76
2022/05/25 06:21:19;;;;;;;0.60;0.60;;;;;;;19.68;100.00;99093.25;5033031;28;20187;-76
2022/05/25 06:23:46;;;;;;;1.03;0.50;;;;;;;19.65;100.00;99101.97;5016792;28;20663;-77
2022/05/25 06:26:15;;;;;;;0.50;0.50;;;;;;;19.37;100.00;99100.13;5026715;28;20213;-76
2022/05/25 06:28:43;;;;;;;0.50;0.50;;;;;;;19.27;100.00;99097.53;5048412;28;20217;-77
2022/05/25 06:31:11;;;;;;;0.63;0.63;;;;;;;19.31;100.00;99098.59;5030783;28;20216;-76
2022/05/25 06:33:39;;;;;;;0.50;0.50;;;;;;;19.25;100.00;99103.25;5029537;28;20185;-76
2022/05/25 06:36:17;;;;;;;0.90;0.50;;;;;;;19.20;100.00;99103.31;5030539;28;20196;-77
2022/05/25 06:38:44;;;;;;;0.60;0.60;;;;;;;19.29;100.00;99112.44;5017020;28;20204;-78
2022/05/25 06:41:12;;;;;;;1.90;0.67;;;;;;;19.39;100.00;99114.22;5010291;28;20653;-76
2022/05/25 06:43:39;;;;;;;0.60;0.60;;;;;;;19.57;100.00;99118.94;5008240;28;20273;-77
2022/05/25 06:46:07;;;;;;;1.60;0.60;;;;;;;19.84;100.00;99112.06;5007578;28;20815;-77
2022/05/25 06:48:50;;;;;;;0.50;0.50;;;;;;;20.21;100.00;99107.44;5007187;28;20688;-76
2022/05/25 06:51:23;;;;;;;0.43;0.40;;;;;;;20.71;100.00;99106.97;5024044;28;20177;-76
2022/05/25 06:53:50;;;;;;;0.60;0.60;;;;;;;20.95;100.00;99110.38;5008925;28;20178;-77
2022/05/25 06:56:18;;;;;;;0.80;0.60;;;;;;;21.18;100.00;99112.13;5008446;28;20192;-76
2022/05/25 06:58:45;;;;;;;0.60;0.53;;;;;;;21.43;100.00;99108.91;5010388;28;20848;-77
2022/05/25 07:01:12;;;;;;;0.50;0.50;;;;;;;21.49;100.00;99110.44;5008492;28;20578;-76
2022/05/25 07:03:39;;;;;;;0.60;0.60;;;;;;;21.36;100.00;99099.53;5008560;28;20188;-77
2022/05/25 07:06:08;;;;;;;0.70;0.53;;;;;;;21.41;100.00;99099.44;5009598;28;20252;-78
2022/05/25 07:08:35;;;;;;;0.70;0.60;;;;;;;21.45;100.00;99095.78;5024971;28;20274;-76
2022/05/25 07:11:03;;;;;;;1.13;0.60;;;;;;;21.21;100.00;99091.66;5009427;28;20228;-77
2022/05/25 07:13:30;;;;;;;0.97;0.70;;;;;;;21.39;100.00;99096.19;5018821;28;20677;-76
2022/05/25 07:16:01;;;;;;;0.87;0.53;;;;;;;21.28;100.00;99089.31;5029804;28;20229;-76
2022/05/25 07:18:28;;;;;;;0.50;0.50;;;;;;;21.56;100.00;99088.19;5025818;28;20206;-78
2022/05/25 07:21:12;;;;;;;1.13;0.50;;;;;;;21.53;100.00;99089.63;5009903;28;20234;-76
2022/05/25 07:23:41;;;;;;;0.47;0.47;;;;;;;21.47;100.00;99090.03;5007224;28;20231;-76
2022/05/25 07:26:10;;;;;;;1.03;0.60;;;;;;;21.55;100.00;99085.78;5010044;28;20235;-76
2022/05/25 07:28:38;;;;;;;0.50;0.50;;;;;;;21.48;100.00;99089.72;5023807;28;20206;-76
2022/05/25 07:31:33;;;;;;;0.50;0.50;;;;;;;21.50;100.00;99100.34;5009698;28;20610;-77
2022/05/25 07:34:04;;;;;;;1.03;0.60;;;;;;;21.36;100.00;99094.09;5008700;28;20692;-77
2022/05/25 07:36:31;;;;;;;1.47;0.67;;;;;;;21.31;100.00;99102.34;5025370;28;20668;-76
2022/05/25 07:39:00;;;;;;;0.60;0.60;;;;;;;21.09;100.00;99101.06;5009691;28;20190;-77
2022/05/25 07:41:28;;;;;;;0.87;0.67;;;;;;;21.28;100.00;99095.56;5009854;28;20208;-77
2022/05/25 07:43:59;;;;;;;0.60;0.60;;;;;;;21.63;100.00;99098.69;5040875;28;20246;-78
2022/05/25 07:46:29;;;;;;;0.50;0.50;;;;;;;22.47;100.00;99107.19;5028703;28;20258;-77
2022/05/25 07:48:56;;;;;;;0.50;0.50;;;;;;;22.60;100.00;99093.47;5029818;28;20207;-77
2022/05/25 07:51:24;;;;;;;1.37;0.67;;;;;;;23.12;100.00;99091.88;5026012;28;20252;-76
2022/05/25 07:53:56;;;;;;;1.33;0.50;;;;;;;22.94;100.00;99100.28;5025935;28;20193;-77
2022/05/25 07:56:25;;;;;;;0.50;0.50;;;;;;;23.03;100.00;99104.69;5029495;28;20708;-77
2022/05/25 07:58:58;;;;;;;0.50;0.50;;;;;;;22.63;100.00;99108.44;5029199;28;20223;-77
2022/05/25 08:07:05;;;;;;;0.57;0.50;;;;;;;21.74;100.00;99117.25;5028587;28;20255;-77
2022/05/25 08:09:32;;;;;;;0.40;0.40;;;;;;;21.64;100.00;99113.94;5028074;28;20723;-77
2022/05/25 08:11:59;;;;;;;0.47;0.47;;;;;;;21.34;100.00;99118.91;5028343;28;20252;-76
2022/05/25 08:14:28;;;;;;;0.50;0.50;;;;;;;21.39;100.00;99116.06;5029251;28;20193;-78
2022/05/25 08:16:55;;;;;;;1.33;0.57;;;;;;;21.91;100.00;99109.25;5027883;28;20214;-76
2022/05/25 08:19:22;;;;;;;0.50;0.50;;;;;;;22.50;100.00;99110.09;5027862;28;20276;-78
2022/05/25 08:21:49;;;;;;;0.63;0.60;;;;;;;22.37;100.00;99119.16;5026756;28;20268;-76
2022/05/25 08:24:16;;;;;;;0.40;0.40;;;;;;;22.11;100.00;99116.22;5025925;28;20236;-78
2022/05/25 08:26:43;;;;;;;0.40;0.33;;;;;;;21.38;100.00;99124.53;5027680;28;20234;-76
2022/05/25 08:29:10;;;;;;;0.50;0.40;;;;;;;21.37;100.00;99123.72;5027409;28;20199;-77
2022/05/25 08:31:37;;;;;;;0.60;0.60;;;;;;;21.51;100.00;99115.56;5028965;28;20182;-76
2022/05/25 08:34:05;;;;;;;1.23;0.57;;;;;;;21.69;100.00;99113.84;5029132;28;20185;-76
2022/05/25 08:36:33;;;;;;;1.97;0.60;;;;;;;21.65;100.00;99115.56;5028292;28;20221;-76
2022/05/25 08:38:59;;;;;;;0.63;0.60;;;;;;;21.46;100.00;99126.59;5027678;28;20200;-77
2022/05/25 08:41:30;;;;;;;0.70;0.70;;;;;;;21.74;100.00;99127.38;5029212;28;20828;-78
2022/05/25 08:43:57;;;;;;;0.77;0.70;;;;;;;22.12;100.00;99122.47;5046396;28;20201;-76
2022/05/25 08:46:25;;;;;;;0.73;0.73;;;;;;;22.11;100.00;99121.69;5031422;28;20709;-76
2022/05/25 08:48:53;;;;;;;0.60;0.60;;;;;;;22.33;100.00;99132.63;5032678;28;20671;-76
2022/05/25 08:51:41;;;;;;;0.70;0.70;;;;;;;22.61;100.00;99122.41;5033117;28;20186;-77
2022/05/25 08:54:09;;;;;;;0.67;0.67;;;;;;;22.74;100.00;99131.66;5032477;28;20170;-76
2022/05/25 08:56:45;;;;;;;0.67;0.63;;;;;;;22.41;100.00;99122.88;5047851;28;20183;-76
2022/05/25 08:59:21;;;;;;;1.13;0.70;;;;;;;22.21;100.00;99121.44;5047568;28;20222;-76
2022/05/25 09:02:00;;;;;;;0.70;0.70;;;;;;;22.71;100.00;99122.19;5031833;28;20173;-76
2022/05/25 09:04:32;;;;;;;0.80;0.80;;;;;;;22.23;100.00;99130.13;5047666;28;20229;-76
2022/05/25 09:07:02;;;;;;;1.00;1.00;;;;;;;22.60;100.00;99136.34;5032416;28;20217;-76
2022/05/25 09:09:42;;;;;;;1.00;0.90;;;;;;;22.68;100.00;99136.41;5032291;28;20212;-76
2022/05/25 09:12:24;;;;;;;1.43;1.10;;;;;;;23.35;100.00;99130.88;5032403;28;20178;-76
2022/05/25 09:15:14;;;;;;;1.93;1.20;;;;;;;23.21;100.00;99128.25;5031062;28;20255;-77
2022/05/25 09:17:44;;;;;;;2.27;1.00;;;;;;;22.76;100.00;99129.44;5032367;28;20241;-77
2022/05/25 09:20:14;;;;;;;1.53;1.03;;;;;;;22.75;100.00;99133.28;5047653;28;20292;-77
2022/05/25 09:22:47;;;;;;;1.77;0.90;;;;;;;23.15;100.00;99126.75;5047288;28;20177;-77
2022/05/25 09:25:15;;;;;;;1.10;1.10;;;;;;;23.05;100.00;99140.69;5047251;28;20193;-76
2022/05/25 09:27:50;;;;;;;1.93;1.13;;;;;;;23.28;100.00;99125.84;5031995;28;20585;-76
2022/05/25 09:30:17;;;;;;;1.00;1.00;;;;;;;22.67;100.00;99132.09;5031157;28;20181;-76
2022/05/25 09:32:56;;;;;;;1.47;1.10;;;;;;;23.05;100.00;99137.16;5032017;28;20193;-76
2022/05/25 09:35:28;;;;;;;0.90;0.90;;;;;;;23.43;100.00;99140.22;5047249;28;20209;-77
2022/05/25 09:38:02;;;;;;;1.10;1.00;;;;;;;24.16;96.06;99139.53;5030776;28;20195;-76
2022/05/25 09:40:38;;;;;;;1.25;1.10;;;;;;;24.38;95.82;99152.25;5047023;28;20202;-77
2022/05/25 09:43:09;;;;;;;1.30;1.20;;;;;;;24.70;95.15;99151.75;5046907;28;20180;-79
2022/05/25 09:45:41;;;;;;;1.92;1.20;;;;;;;24.71;90.31;99139.66;5030541;28;20209;-76
2022/05/25 09:48:26;;;;;;;1.65;1.55;;;;;;;24.76;90.75;99138.69;5046958;28;20183;-76
2022/05/25 09:51:43;;;;;;;2.72;1.40;;;;;;;24.44;95.92;99143.56;5031652;28;20202;-76
2022/05/25 09:54:19;;;;;;;1.77;1.67;;;;;;;25.70;83.71;99132.94;5016988;28;20206;-78
2022/05/25 09:57:08;;;;;;;1.40;1.30;;;;;;;25.42;89.08;99151.78;5046736;28;20269;-79
2022/05/25 09:59:37;;;;;;;1.45;1.35;;;;;;;24.16;91.65;99160.56;5031473;28;20264;-76
2022/05/25 10:02:20;;;;;;;2.03;1.52;;;;;;;24.05;94.47;99162.81;5046906;28;20215;-76
2022/05/25 10:04:55;;;;;;;1.40;1.40;;;;;;;24.30;91.99;99167.56;5031377;28;20199;-76
2022/05/25 10:07:30;;;;;;;1.40;1.30;;;;;;;24.13;93.44;99162.81;5031230;28;20476;-76
2022/05/25 10:10:06;;;;;;;1.65;1.30;;;;;;;23.95;93.35;99163.09;5030873;28;20199;-77
2022/05/25 10:12:39;;;;;;;1.17;1.08;;;;;;;24.08;91.49;99170.38;5046386;28;20206;-75
2022/05/25 10:15:07;;;;;;;2.33;1.35;;;;;;;23.99;93.14;99161.34;5030973;28;20630;-77
2022/05/25 10:17:37;;;;;;;2.40;1.45;;;;;;;24.03;91.88;99165.84;5031197;28;20270;-76
2022/05/25 10:20:19;;;;;;;1.35;1.27;;;;;;;23.91;92.19;99164.88;5030846;28;20219;-76
2022/05/25 10:22:46;;;;;;;1.40;1.30;;;;;;;24.35;91.68;99155.63;5046277;28;20179;-77
2022/05/25 10:25:22;;;;;;;3.15;1.48;;;;;;;24.79;88.24;99163.50;5045841;28;20218;-76
2022/05/25 10:27:49;;;;;;;1.50;1.40;;;;;;;25.12;84.21;99152.81;5031062;28;20252;-77
2022/05/25 10:39:21;;;;;;;1.30;1.23;;;;;;;24.92;80.45;99169.94;5042445;28;20201;-75
2022/05/25 10:42:08;;;;;;;1.75;1.10;;;;;;;24.96;79.23;99170.94;5029700;28;20174;-76
2022/05/25 10:44:56;;;;;;;1.02;1.00;;;;;;;25.10;78.66;99157.03;5021715;28;20313;-76
2022/05/25 10:47:38;;;;;;;1.25;1.13;;;;;;;24.63;80.93;99153.38;5014060;28;20190;-76
2022/05/25 10:50:13;;;;;;;2.25;1.30;;;;;;;25.46;77.75;99151.91;5030724;28;20201;-81
2022/05/25 10:52:45;;;;;;;1.17;1.13;;;;;;;26.72;69.98;99155.31;5027981;28;20627;-76
2022/05/25 10:55:11;;;;;;;1.10;1.10;;;;;;;27.55;62.94;99148.81;5009876;28;20260;-76
2022/05/25 10:58:10;;;;;;;1.20;1.10;;;;;;;27.27;61.56;99145.88;5009609;28;20238;-76
2022/05/25 11:00:59;;;;;;;1.15;1.15;;;;;;;27.40;62.93;99152.19;5008531;28;20267;-78
2022/05/25 11:03:59;;;;;;;1.25;0.95;;;;;;;26.25;65.67;99154.75;5010469;28;20182;-78
2022/05/25 11:06:52;;;;;;;1.05;1.02;;;;;;;25.98;68.04;99157.97;5010232;28;20199;-77
2022/05/25 11:09:31;;;;;;;1.05;0.80;;;;;;;25.69;70.07;99166.19;5008927;28;20183;-77
2022/05/25 11:12:17;;;;;;;1.05;0.70;;;;;;;24.97;75.04;99172.53;5018917;28;20191;-76
2022/05/25 11:15:19;;;;;;;0.82;0.70;;;;;;;25.29;75.89;99166.47;5021370;28;20183;-77
2022/05/25 11:18:17;;;;;;;0.98;0.80;;;;;;;24.86;77.90;99180.28;5015229;28;20233;-77
2022/05/25 11:21:08;;;;;;;0.90;0.73;;;;;;;24.70;80.49;99187.34;5027178;28;20209;-77
2022/05/25 11:23:40;;;;;;;0.50;0.50;;;;;;;23.82;84.50;99183.19;5027570;28;20175;-76
2022/05/25 11:26:17;;;;;;;0.73;0.70;;;;;;;23.29;87.40;99186.78;5029508;28;20597;-76
2022/05/25 11:29:09;;;;;;;0.60;0.60;;;;;;;22.93;92.92;99189.63;5029966;28;20610;-76
2022/05/25 11:31:36;;;;;;;1.15;0.57;;;;;;;22.25;98.98;99201.59;5029696;28;20215;-78
2022/05/25 11:34:22;;;;;;;0.60;0.60;;;;;;;21.83;100.00;99196.44;5029355;28;20273;-77
2022/05/25 11:37:22;;;;;;;0.70;0.70;;;;;;;21.42;100.00;99199.13;5029008;28;20207;-77
2022/05/25 11:40:13;;;;;;;2.30;0.70;;;;;;;21.19;100.00;99202.81;5029843;28;20686;-76
2022/05/25 11:43:11;;;;;;;0.70;0.70;;;;;;;20.89;100.00;99217.75;5030017;28;20221;-77
2022/05/25 11:46:08;;;;;;;0.50;0.50;;;;;;;20.79;100.00;99213.25;5044998;28;20196;-76
2022/05/25 11:49:15;;;;;;;1.57;0.60;;;;;;;20.51;100.00;99219.69;5030345;28;20240;-76
2022/05/25 11:52:07;;;;;;;1.37;0.60;;;;;;;20.26;100.00;99225.44;5045152;28;20202;-76
2022/05/25 11:55:04;;;;;;;0.83;0.67;;;;;;;20.10;100.00;99219.41;5029764;28;20178;-76
2022/05/25 11:57:50;;;;;;;0.90;0.60;;;;;;;20.02;100.00;99234.44;5029973;28;20355;-76
2022/05/25 12:00:51;;;;;;;1.80;0.60;;;;;;;19.89;100.00;99234.31;5029494;28;20203;-76
2022/05/25 12:03:17;;;;;;;0.60;0.50;;;;;;;19.65;100.00;99226.97;5029758;28;20227;-76
2022/05/25 12:06:20;;;;;;;1.23;0.50;;;;;;;19.58;100.00;99233.88;5029757;28;20202;-77
2022/05/25 12:09:09;;;;;;;0.60;0.60;;;;;;;19.42;100.00;99224.22;5029791;28;20291;-77
2022/05/25 12:12:07;;;;;;;0.67;0.67;;;;;;;19.31;100.00;99227.03;5029630;28;20256;-76
2022/05/25 12:14:46;;;;;;;0.83;0.83;;;;;;;19.31;100.00;99231.66;5029764;28;20185;-75
2022/05/25 12:17:28;;;;;;;0.80;0.80;;;;;;;19.14;100.00;99233.97;5044974;28;20202;-75
2022/05/25 12:19:57;;;;;;;0.70;0.70;;;;;;;19.02;100.00;99239.78;5033256;28;20186;-75
2022/05/25 12:22:31;;;;;;;1.10;0.80;;;;;;;19.08;100.00;99246.81;5048659;28;20182;-74